• Join FlightAware (Why Join?)
  • Login
  • US Flag 
09:47AM EST


 

Airport Tracker/Info


-or-


 

Live Flight TrackerFlight Track Log ✈ SKW4552 ✈ 03-Feb-2014 ✈ KMSO - KSLC

Flight Track Log - Related Links

Times and Time Zones

All times are in EST time to prevent confusion due to time zone crossing. See the SKW4552 flight status page for this flight to view local times or setup timezone preferences in your user account.

Time Position Orientation Groundspeed Altitude Reporting Facility
EST Latitude Longitude Course Direction KTS MPH feet Rate Location/Type
08:49AM 46.9050 -114.0739 180° South 137 158 4,100  Level Salt Lake Center
08:51AM 46.8517 -114.0689 176° South 195 224 6,400 2,280 Climbing Salt Lake Center
08:52AM 46.7881 -114.0586 174° South 226 260 8,700 2,100 Climbing Salt Lake Center
08:53AM 46.3163 -113.8627 180° South  Level Estimated
08:53AM 46.7164 -114.0433 172° South 255 293 10,700  Level Salt Lake Center
08:54AM 46.2163 -113.8252 180° South  Level Estimated
08:54AM 46.6403 -114.0289 173° South 273 314 13,500  Level Salt Lake Center
08:55AM 46.1162 -113.7879 180° South  Level Estimated
08:55AM 46.5600 -113.9997 166° South 297 342 15,800  Level Salt Lake Center
08:56AM 46.4800 -113.9747 168° South 295 339 17,900 1,620 Climbing Salt Lake Center
08:57AM 46.3925 -113.9458 167° South 321 369 19,100 1,260 Climbing Salt Lake Center
08:58AM 46.2950 -113.9136 167° South 340 391 20,500 1,320 Climbing Salt Lake Center
08:59AM 46.1981 -113.8833 168° South 356 410 21,800 1,260 Climbing Salt Lake Center
09:00AM 46.0997 -113.8519 168° South 363 418 23,100 1,080 Climbing Salt Lake Center
09:01AM 45.9994 -113.8192 167° South 370 426 24,000 720 Climbing Salt Lake Center
09:02AM 45.8956 -113.7861 168° South 381 438 24,600 660 Climbing Salt Lake Center
09:03AM 45.7858 -113.7503 167° South 400 460 25,400 780 Climbing Salt Lake Center
09:04AM 45.6767 -113.7158 168° South 403 464 26,300 780 Climbing Salt Lake Center
09:05AM 45.5678 -113.6825 168° South 408 470 27,000 660 Climbing Salt Lake Center
09:06AM 45.4567 -113.6472 167° South 409 471 27,700 660 Climbing Salt Lake Center
09:07AM 45.3389 -113.6106 168° South 408 470 28,400 600 Climbing Salt Lake Center
09:08AM 45.2211 -113.5733 167° South 414 476 29,000 540 Climbing Salt Lake Center
09:09AM 45.1147 -113.5403 168° South 410 472 29,600 480 Climbing Salt Lake Center
09:10AM 45.0061 -113.5058 167° South 415 478 30,000 480 Climbing Salt Lake Center
09:11AM 44.8797 -113.4658 167° South 417 480 30,600 480 Climbing Salt Lake Center
09:12AM 44.7706 -113.4319 168° South 420 483 31,000 180 Climbing Salt Lake Center
09:13AM 44.6594 -113.3994 168° South 425 489 31,000  Level Salt Lake Center
09:14AM 44.5267 -113.3581 167° South 435 501 31,000  Level Salt Lake Center
09:15AM 44.4144 -113.3217 167° South 434 499 31,000  Level Salt Lake Center
09:16AM 44.2989 -113.2881 168° South 439 505 31,000  Level Salt Lake Center
09:17AM 44.1589 -113.2458 168° South 453 521 31,000  Level Salt Lake Center
09:18AM 44.0408 -113.2097 168° South 455 524 31,000  Level Salt Lake Center
09:19AM 43.9239 -113.1753 168° South 452 520 31,000  Level Salt Lake Center
09:20AM 43.7847 -113.1328 168° South 458 527 31,000  Level Salt Lake Center
09:21AM 43.6656 -113.0983 168° South 457 526 31,000  Level Salt Lake Center
09:22AM 43.5472 -113.0642 168° South 456 525 31,000  Level Salt Lake Center
09:23AM 43.4075 -113.0214 167° South 460 529 31,000  Level Salt Lake Center
09:24AM 43.2869 -112.9869 168° South 461 531 31,000  Level Salt Lake Center
09:25AM 43.1675 -112.9508 168° South 460 529 31,000 -300 Level Salt Lake Center
09:26AM 43.0278 -112.9117 168° South 460 529 30,500 -540 Descending Salt Lake Center
09:27AM 42.9028 -112.8750 168° South 476 548 30,000 -300 Descending Salt Lake Center
09:28AM 42.7583 -112.8339 168° South 474 545 30,000  Level Salt Lake Center
09:29AM 42.6347 -112.7981 168° South 470 541 30,000  Level Salt Lake Center
09:30AM 42.5081 -112.7608 168° South 467 537 30,000  Level Salt Lake Center
09:31AM 42.3811 -112.7253 168° South 468 539 30,000 -60 Level Salt Lake Center
09:32AM 42.2544 -112.6911 169° South 466 536 29,900 -1,560 Descending Salt Lake Center
09:33AM 42.1275 -112.6556 168° South 468 539 26,900 -2,940 Descending Salt Lake Center
09:34AM 42.0033 -112.6183 167° South 460 529 24,000 -2,760 Descending Salt Lake Center
09:35AM 41.8772 -112.5842 169° South 463 533 21,400 -2,400 Descending Salt Lake Center
09:36AM 41.7564 -112.5519 169° South 453 521 19,200 -2,340 Descending Salt Lake Center
09:37AM 41.6564 -112.5156 165° South 426 490 17,200 -2,220 Descending Salt Lake Center
09:37AM 41.6417 -112.5206 194° South 429 494 17,000 -1,920 Descending Salt Lake Center
09:37AM 41.6114 -112.5050 159° South 420 483 16,400 -1,140 Descending Salt Lake Center
09:38AM 41.5294 -112.4861 170° South 417 480 15,900 -960 Descending Salt Lake Center
09:38AM 41.4939 -112.4414 137° Southeast 389 448 15,400 -1,500 Descending Salt Lake Center
09:39AM 41.4294 -112.3747 142° Southeast 396 456 14,400 -1,380 Descending Salt Lake Center
09:40AM 41.3783 -112.3089 136° Southeast 406 467 13,500 -1,200 Descending Salt Lake Center
09:40AM 41.3486 -112.2786 143° Southeast 391 450 13,200 -900 Descending Salt Lake Center
09:41AM 41.3064 -112.2247 136° Southeast 319 367 12,600 -1,020 Descending Salt Lake Center
09:41AM 41.2819 -112.2000 143° Southeast 328 377 12,200 -1,140 Descending Salt Lake Center
09:41AM 41.2592 -112.1694 135° Southeast 292 336 11,800 -1,020 Descending Salt Lake Center
09:42AM 41.2211 -112.1281 141° Southeast 298 343 11,200 -780 Descending Salt Lake Center
09:43AM 41.1864 -112.0831 136° Southeast 279 321 10,800 -720 Descending Salt Lake Center
09:43AM 41.1656 -112.0658 148° Southeast 266 306 10,500 -840 Descending Salt Lake Center
09:43AM 41.1406 -112.0475 151° Southeast 243 280 10,200 -900 Descending Salt Lake Center
09:44AM 41.1028 -112.0303 161° South 249 287 9,600 -840 Descending Salt Lake Center
09:45AM 41.0572 -112.0275 177° South 221 254 9,100 -720 Descending Salt Lake Center
09:45AM 41.0425 -112.0258 175° South 221 254 8,900 -1,020 Descending Salt Lake Center
09:46AM 41.0044 -112.0228 177° South 195 224 8,200 -1,020 Descending Salt Lake Center
09:46AM 40.9886 -112.0211 175° South 198 228 7,900 -1,020 Descending Salt Lake Center
09:47AM 40.9533 -112.0144 172° South 187 215 7,200 -1,020 Descending Salt Lake Center
09:47AM 40.9378 -112.0147 181° South 186 214 6,900 -900 Descending Salt Lake Center
09:48AM 40.9119 -112.0117 175° South 136 157 6,300 -900 Descending Salt Lake Center
09:48AM 40.8925 -112.0094 175° South 136 157 6,000 -720 Descending Salt Lake Center
09:49AM 40.8744 -112.0072 175° South 124 143 5,600 -720 Descending Salt Lake Center
09:49AM 40.8575 -112.0047 174° South 128 147 5,300 -720 Descending Salt Lake Center
09:49AM 40.8503 -112.0042 177° South 131 151 5,100 -840 Descending Salt Lake Center
09:50AM 40.8183 -111.9994 174° South 139 160 4,500 -480 Descending Salt Lake Center
09:51AM 40.7900 -111.9969 176° South 115 132 4,300 -240 Descending Salt Lake Center